Time;durP1;ratioP1;P1;durP2;ratioP2;P2;SDS_P1;SDS_P2;PMS_P1;PMS_P2;Temp;Humidity;BMP_temperature;BMP_pressure;BME280_temperature;BME280_humidity;BME280_pressure;Samples;Min_cycle;Max_cycle;Signal;HPM_P1;HPM_P2
2022/12/20 00:01:40;;;;;;;;;;;5.00;99.90;;;;;;5010256;28;20003;-65
2022/12/20 00:04:05;;;;;;;;;;;4.90;99.90;;;;;;5011965;28;20297;-66
2022/12/20 00:06:33;;;;;;;;;;;4.90;99.90;;;;;;4992623;28;19914;-66
2022/12/20 00:08:59;;;;;;;;;;;4.90;99.90;;;;;;5008671;28;19913;-66
2022/12/20 00:11:25;;;;;;;;;;;4.90;99.90;;;;;;5010744;28;20233;-64
2022/12/20 00:13:51;;;;;;;;;;;4.90;99.90;;;;;;5010220;28;19917;-67
2022/12/20 00:16:18;;;;;;;;;;;4.90;99.90;;;;;;5014097;28;19921;-64
2022/12/20 00:18:44;;;;;;;;;;;5.00;99.90;;;;;;5009275;28;19914;-66
2022/12/20 00:21:11;;;;;;;;;;;5.00;99.90;;;;;;5006799;28;20363;-66
2022/12/20 00:23:37;;;;;;;;;;;4.90;99.90;;;;;;5006647;28;19972;-64
2022/12/20 00:26:06;;;;;;;;;;;4.90;99.90;;;;;;5010072;28;19910;-66
2022/12/20 00:28:32;;;;;;;;;;;4.90;99.90;;;;;;5013704;28;19913;-67
2022/12/20 00:30:58;;;;;;;;;;;4.90;99.90;;;;;;5012387;28;19921;-68
2022/12/20 00:33:24;;;;;;;;;;;4.90;99.90;;;;;;5010253;28;19921;-65
2022/12/20 00:35:49;;;;;;;;;;;4.90;99.90;;;;;;4986685;28;20300;-65
2022/12/20 00:38:15;;;;;;;;;;;4.90;99.90;;;;;;5010039;28;19913;-64
2022/12/20 00:40:40;;;;;;;;;;;4.90;99.90;;;;;;5003528;28;19914;-65
2022/12/20 00:43:06;;;;;;;;;;;4.90;99.90;;;;;;5013075;28;19913;-64
2022/12/20 00:45:32;;;;;;;;;;;4.80;99.90;;;;;;5002080;28;19921;-65
2022/12/20 00:47:57;;;;;;;;;;;4.90;99.90;;;;;;4990383;28;19917;-65
2022/12/20 00:50:23;;;;;;;;;;;4.80;99.90;;;;;;4994872;28;19925;-65
2022/12/20 00:52:48;;;;;;;;;;;4.90;99.90;;;;;;5007761;28;20016;-65
2022/12/20 00:55:14;;;;;;;;;;;4.80;99.90;;;;;;5012507;28;20373;-65
2022/12/20 00:57:40;;;;;;;;;;;4.80;99.90;;;;;;4999954;28;19944;-64
2022/12/20 01:00:06;;;;;;;;;;;4.90;99.90;;;;;;5010167;28;19914;-66
2022/12/20 01:02:31;;;;;;;;;;;4.90;99.90;;;;;;5015409;28;19913;-66
2022/12/20 01:04:57;;;;;;;;;;;4.80;99.90;;;;;;5007708;28;19953;-65
2022/12/20 01:07:23;;;;;;;;;;;4.80;99.90;;;;;;5008828;28;20372;-66
2022/12/20 01:09:49;;;;;;;;;;;4.80;99.90;;;;;;5011734;28;20013;-65
2022/12/20 01:12:14;;;;;;;;;;;4.80;99.90;;;;;;5015911;28;20367;-65
2022/12/20 01:14:40;;;;;;;;;;;4.70;99.90;;;;;;5002127;28;19918;-65
2022/12/20 01:17:06;;;;;;;;;;;4.70;99.90;;;;;;5012056;28;19914;-65
2022/12/20 01:19:31;;;;;;;;;;;4.70;99.90;;;;;;5012091;28;19918;-65
2022/12/20 01:21:57;;;;;;;;;;;4.80;99.90;;;;;;5012314;28;19914;-65
2022/12/20 01:24:23;;;;;;;;;;;4.80;99.90;;;;;;5002914;28;19917;-65
2022/12/20 01:26:48;;;;;;;;;;;4.70;99.90;;;;;;5009752;28;19921;-66
2022/12/20 01:29:14;;;;;;;;;;;4.70;99.90;;;;;;5007866;28;20008;-65
2022/12/20 01:31:40;;;;;;;;;;;4.60;99.90;;;;;;5016486;28;20400;-66
2022/12/20 01:34:06;;;;;;;;;;;4.60;99.90;;;;;;4997068;28;19979;-65
2022/12/20 01:36:33;;;;;;;;;;;4.70;99.90;;;;;;5014992;28;19931;-65
2022/12/20 01:39:03;;;;;;;;;;;4.70;99.90;;;;;;5013878;28;20288;-65
2022/12/20 01:41:29;;;;;;;;;;;4.70;99.90;;;;;;5005594;28;21025;-65
2022/12/20 01:43:59;;;;;;;;;;;4.70;99.90;;;;;;5004508;28;20015;-65
2022/12/20 01:46:25;;;;;;;;;;;4.80;99.90;;;;;;5004519;28;19936;-65
2022/12/20 01:48:55;;;;;;;;;;;4.80;99.90;;;;;;5008567;28;19918;-64
2022/12/20 01:51:22;;;;;;;;;;;4.80;99.90;;;;;;4998630;28;20388;-64
2022/12/20 01:53:49;;;;;;;;;;;4.70;99.90;;;;;;4998250;28;19925;-64
2022/12/20 01:56:15;;;;;;;;;;;4.70;99.90;;;;;;4980825;28;20473;-65
2022/12/20 01:58:41;;;;;;;;;;;4.60;99.90;;;;;;4997716;28;20012;-65
2022/12/20 02:01:06;;;;;;;;;;;4.60;99.90;;;;;;4995186;28;19930;-65
2022/12/20 02:03:32;;;;;;;;;;;4.60;99.90;;;;;;4980510;28;19925;-65
2022/12/20 02:06:08;;;;;;;;;;;4.70;99.90;;;;;;4994321;28;20293;-65
2022/12/20 02:08:34;;;;;;;;;;;4.70;99.90;;;;;;4998088;28;19949;-65
2022/12/20 02:10:59;;;;;;;;;;;4.60;99.90;;;;;;4996939;28;19917;-65
2022/12/20 02:13:37;;;;;;;;;;;4.70;99.90;;;;;;4996714;28;20007;-66
2022/12/20 02:16:03;;;;;;;;;;;4.70;99.90;;;;;;4996542;28;19925;-65
2022/12/20 02:18:34;;;;;;;;;;;4.70;99.90;;;;;;5000007;28;20278;-66
2022/12/20 02:21:11;;;;;;;;;;;4.60;99.90;;;;;;5010877;28;19917;-65
2022/12/20 02:23:56;;;;;;;;;;;4.60;99.90;;;;;;5009915;28;19921;-66
2022/12/20 02:26:21;;;;;;;;;;;4.60;99.90;;;;;;5012056;28;19917;-66
2022/12/20 02:28:47;;;;;;;;;;;4.50;99.90;;;;;;5011153;28;20915;-65
2022/12/20 02:31:16;;;;;;;;;;;4.50;99.90;;;;;;5011436;28;20040;-65
2022/12/20 02:33:43;;;;;;;;;;;4.50;99.90;;;;;;5009721;28;20127;-66
2022/12/20 02:36:09;;;;;;;;;;;4.50;99.90;;;;;;5006876;28;20033;-65
2022/12/20 02:38:36;;;;;;;;;;;4.60;99.90;;;;;;5004425;28;20015;-65
2022/12/20 02:41:07;;;;;;;;;;;4.50;99.90;;;;;;5010412;28;20679;-65
2022/12/20 02:46:19;;;;;;;;;;;4.50;99.90;;;;;;5009625;28;20376;-66
2022/12/20 02:48:46;;;;;;;;;;;4.60;99.90;;;;;;5014155;28;20000;-66
2022/12/20 02:51:13;;;;;;;;;;;4.60;99.90;;;;;;5011372;28;19924;-65
2022/12/20 02:53:39;;;;;;;;;;;4.60;99.90;;;;;;5011201;28;19910;-66
2022/12/20 02:56:09;;;;;;;;;;;4.50;99.90;;;;;;5004303;28;20404;-65
2022/12/20 02:58:37;;;;;;;;;;;4.50;99.90;;;;;;5011080;28;19916;-65
2022/12/20 03:01:05;;;;;;;;;;;4.40;99.90;;;;;;5003433;28;20356;-66
2022/12/20 03:03:35;;;;;;;;;;;4.50;99.90;;;;;;5015458;28;19928;-67
2022/12/20 03:06:01;;;;;;;;;;;4.40;99.90;;;;;;4998203;28;19913;-67
2022/12/20 03:08:26;;;;;;;;;;;4.40;99.90;;;;;;5012138;28;19968;-66
2022/12/20 03:10:53;;;;;;;;;;;4.40;99.90;;;;;;5010293;28;19910;-64
2022/12/20 03:13:19;;;;;;;;;;;4.40;99.90;;;;;;5001300;28;19936;-64
2022/12/20 03:15:44;;;;;;;;;;;4.40;99.90;;;;;;5009449;28;20405;-64
2022/12/20 03:18:10;;;;;;;;;;;4.50;99.90;;;;;;5005244;28;19917;-65
2022/12/20 03:20:35;;;;;;;;;;;4.50;99.90;;;;;;5009537;28;20266;-65
2022/12/20 03:23:01;;;;;;;;;;;4.50;99.90;;;;;;5003927;28;19913;-64
2022/12/20 03:25:27;;;;;;;;;;;4.50;99.90;;;;;;5008509;28;20332;-64
2022/12/20 03:27:52;;;;;;;;;;;4.50;99.90;;;;;;5005280;28;19914;-65
2022/12/20 03:30:18;;;;;;;;;;;4.60;99.90;;;;;;5007710;28;19913;-65
2022/12/20 03:32:44;;;;;;;;;;;4.60;99.90;;;;;;5004937;28;20373;-64
2022/12/20 03:35:09;;;;;;;;;;;4.60;99.90;;;;;;5006846;28;20048;-64
2022/12/20 03:37:35;;;;;;;;;;;4.50;99.90;;;;;;5005408;28;19928;-64
2022/12/20 03:40:00;;;;;;;;;;;4.60;99.90;;;;;;5010323;28;19928;-65
2022/12/20 03:42:26;;;;;;;;;;;4.50;99.90;;;;;;5005055;28;20000;-65
2022/12/20 03:44:52;;;;;;;;;;;4.50;99.90;;;;;;5009513;28;20316;-65
2022/12/20 03:47:17;;;;;;;;;;;4.50;99.90;;;;;;5006247;28;19948;-64
2022/12/20 03:49:43;;;;;;;;;;;4.50;99.90;;;;;;5010069;28;20337;-64
2022/12/20 03:52:10;;;;;;;;;;;4.50;99.90;;;;;;5013775;28;19909;-63
2022/12/20 03:54:36;;;;;;;;;;;4.40;99.90;;;;;;5010432;28;19960;-64
2022/12/20 03:57:02;;;;;;;;;;;4.30;99.90;;;;;;5010445;28;19913;-64
2022/12/20 03:59:27;;;;;;;;;;;4.30;99.90;;;;;;5009213;28;20233;-63
2022/12/20 04:01:53;;;;;;;;;;;4.40;99.90;;;;;;5010648;28;19910;-65
2022/12/20 04:04:19;;;;;;;;;;;4.40;99.90;;;;;;5004979;28;19924;-64
2022/12/20 04:06:44;;;;;;;;;;;4.40;99.90;;;;;;5010159;28;19913;-65
2022/12/20 04:09:10;;;;;;;;;;;4.50;99.90;;;;;;5014634;28;19932;-64
2022/12/20 04:11:35;;;;;;;;;;;4.50;99.90;;;;;;5010513;28;19992;-65
2022/12/20 04:14:01;;;;;;;;;;;4.60;99.90;;;;;;5002970;28;19917;-64
2022/12/20 04:16:27;;;;;;;;;;;4.60;99.90;;;;;;4980789;28;19996;-64
2022/12/20 04:18:53;;;;;;;;;;;4.70;99.90;;;;;;4993979;28;20021;-65
2022/12/20 04:21:26;;;;;;;;;;;4.60;99.90;;;;;;4992231;28;20000;-65
2022/12/20 04:23:52;;;;;;;;;;;4.60;99.90;;;;;;4993524;28;19926;-65
2022/12/20 04:26:17;;;;;;;;;;;4.60;99.90;;;;;;4998609;28;20260;-64
2022/12/20 04:28:43;;;;;;;;;;;4.50;99.90;;;;;;5010287;28;19916;-64
2022/12/20 04:31:09;;;;;;;;;;;4.50;99.90;;;;;;5007384;28;19921;-64
2022/12/20 04:33:35;;;;;;;;;;;4.50;99.90;;;;;;4999515;28;20371;-65
2022/12/20 04:36:00;;;;;;;;;;;4.50;99.90;;;;;;4996951;28;19920;-65
2022/12/20 04:38:26;;;;;;;;;;;4.50;99.90;;;;;;5004954;28;20376;-64
2022/12/20 04:40:52;;;;;;;;;;;4.60;99.90;;;;;;4992383;28;19961;-65
2022/12/20 04:43:18;;;;;;;;;;;4.70;99.90;;;;;;4999934;28;19943;-64
2022/12/20 04:45:45;;;;;;;;;;;4.70;99.90;;;;;;5003515;28;19996;-63
2022/12/20 04:48:11;;;;;;;;;;;4.70;99.90;;;;;;5002098;28;19965;-65
2022/12/20 04:50:37;;;;;;;;;;;4.70;99.90;;;;;;5006945;28;19949;-69
2022/12/20 04:55:46;;;;;;;;;;;4.60;99.90;;;;;;4996108;28;19921;-65
2022/12/20 04:58:12;;;;;;;;;;;4.60;99.90;;;;;;4995040;28;19918;-64
2022/12/20 05:00:37;;;;;;;;;;;4.60;99.90;;;;;;4992244;28;19956;-65
2022/12/20 05:03:03;;;;;;;;;;;4.70;99.90;;;;;;4995533;28;20411;-64
2022/12/20 05:05:28;;;;;;;;;;;4.60;99.90;;;;;;4996725;28;19918;-64
2022/12/20 05:07:54;;;;;;;;;;;4.60;99.90;;;;;;4992441;28;20412;-65
2022/12/20 05:10:20;;;;;;;;;;;4.60;99.90;;;;;;4996548;28;20007;-66
2022/12/20 05:12:45;;;;;;;;;;;4.60;99.90;;;;;;5001081;28;19975;-65
2022/12/20 05:15:11;;;;;;;;;;;4.70;99.90;;;;;;5005577;28;19944;-63
2022/12/20 05:17:36;;;;;;;;;;;4.60;99.90;;;;;;4999760;28;19951;-65
2022/12/20 05:20:02;;;;;;;;;;;4.70;99.90;;;;;;4923364;28;1937597;-65
2022/12/20 05:27:57;;;;;;;;;;;4.70;99.90;;;;;;4993348;28;20016;-64
2022/12/20 05:30:23;;;;;;;;;;;4.70;99.90;;;;;;4993048;28;20000;-65
2022/12/20 05:32:49;;;;;;;;;;;4.70;99.90;;;;;;4998238;28;19913;-65
2022/12/20 05:35:15;;;;;;;;;;;4.70;99.90;;;;;;5005971;28;19921;-66
2022/12/20 05:37:41;;;;;;;;;;;4.80;99.90;;;;;;5006227;28;19965;-65
2022/12/20 05:40:07;;;;;;;;;;;4.80;99.90;;;;;;5000463;28;19981;-65
2022/12/20 05:42:32;;;;;;;;;;;4.90;99.90;;;;;;5003858;28;19921;-65
2022/12/20 05:44:59;;;;;;;;;;;4.80;99.90;;;;;;4993872;28;20388;-65
2022/12/20 05:47:25;;;;;;;;;;;4.90;99.90;;;;;;4993746;28;19925;-65
2022/12/20 05:49:51;;;;;;;;;;;5.00;99.90;;;;;;4999328;28;19925;-66
2022/12/20 05:52:17;;;;;;;;;;;5.00;99.90;;;;;;4994410;28;19922;-65
2022/12/20 05:54:42;;;;;;;;;;;5.00;99.90;;;;;;4992443;28;20005;-65
2022/12/20 05:57:08;;;;;;;;;;;5.10;99.90;;;;;;4996624;28;19913;-64
2022/12/20 05:59:34;;;;;;;;;;;5.10;99.90;;;;;;4999239;28;20346;-66
2022/12/20 06:01:59;;;;;;;;;;;5.10;99.90;;;;;;4999766;28;20716;-66
2022/12/20 06:04:25;;;;;;;;;;;5.10;99.90;;;;;;5011064;28;19944;-65
2022/12/20 06:06:51;;;;;;;;;;;5.30;99.90;;;;;;5007603;28;19961;-66
2022/12/20 06:09:17;;;;;;;;;;;5.30;99.90;;;;;;5012912;28;20324;-66
2022/12/20 06:11:42;;;;;;;;;;;5.30;99.90;;;;;;5005701;28;19923;-65
2022/12/20 06:14:08;;;;;;;;;;;5.40;99.90;;;;;;4996300;28;19921;-66
2022/12/20 06:16:35;;;;;;;;;;;5.40;99.90;;;;;;4997089;28;19920;-65
2022/12/20 06:19:01;;;;;;;;;;;5.50;99.90;;;;;;4999369;28;19964;-65
2022/12/20 06:21:27;;;;;;;;;;;5.50;99.90;;;;;;4993768;28;19937;-65
2022/12/20 06:23:53;;;;;;;;;;;5.40;99.90;;;;;;5000280;28;20277;-65
2022/12/20 06:26:18;;;;;;;;;;;5.50;99.90;;;;;;4999028;28;19946;-65
2022/12/20 06:28:44;;;;;;;;;;;5.50;99.90;;;;;;5007798;28;20296;-64
2022/12/20 06:31:10;;;;;;;;;;;5.60;99.90;;;;;;5009479;28;19914;-64
2022/12/20 06:33:36;;;;;;;;;;;5.70;99.90;;;;;;5002477;28;19921;-65
2022/12/20 06:36:02;;;;;;;;;;;5.70;99.90;;;;;;5009039;28;19914;-65
2022/12/20 06:38:28;;;;;;;;;;;5.70;99.90;;;;;;5012720;28;19946;-65
2022/12/20 06:40:53;;;;;;;;;;;5.70;99.90;;;;;;5012912;28;20518;-66
2022/12/20 06:43:19;;;;;;;;;;;5.70;99.90;;;;;;5006173;28;19975;-65
2022/12/20 06:45:44;;;;;;;;;;;5.70;99.90;;;;;;5017650;28;19920;-64
2022/12/20 06:48:10;;;;;;;;;;;5.70;99.90;;;;;;5004954;28;20377;-65
2022/12/20 06:50:36;;;;;;;;;;;5.80;99.90;;;;;;5008494;28;20238;-65
2022/12/20 06:53:02;;;;;;;;;;;5.80;99.90;;;;;;5005128;28;19968;-65
2022/12/20 06:55:27;;;;;;;;;;;5.90;99.90;;;;;;5006240;28;19913;-66
2022/12/20 06:57:55;;;;;;;;;;;5.90;99.90;;;;;;4988942;28;19964;-65
2022/12/20 07:00:21;;;;;;;;;;;6.00;99.90;;;;;;5001825;28;19949;-65
2022/12/20 07:02:46;;;;;;;;;;;6.00;99.90;;;;;;5009510;28;20356;-66
2022/12/20 07:05:12;;;;;;;;;;;5.90;99.90;;;;;;5007545;28;19918;-65
2022/12/20 07:07:37;;;;;;;;;;;6.10;99.90;;;;;;5010562;28;19924;-65
2022/12/20 07:10:03;;;;;;;;;;;6.10;99.90;;;;;;5008935;28;20016;-64
2022/12/20 07:12:29;;;;;;;;;;;6.10;99.90;;;;;;5009846;28;19920;-65
2022/12/20 07:14:55;;;;;;;;;;;6.20;99.90;;;;;;5015855;28;20024;-65
2022/12/20 07:17:20;;;;;;;;;;;6.20;99.90;;;;;;5015410;28;19917;-65
2022/12/20 07:19:46;;;;;;;;;;;6.20;99.90;;;;;;5001680;28;20008;-64
2022/12/20 07:22:11;;;;;;;;;;;6.30;99.90;;;;;;5006957;28;19920;-64
2022/12/20 07:24:38;;;;;;;;;;;6.30;99.90;;;;;;5006183;28;20373;-64
2022/12/20 07:27:03;;;;;;;;;;;6.30;99.90;;;;;;4991440;28;19913;-65
2022/12/20 07:29:29;;;;;;;;;;;6.40;99.90;;;;;;5006583;28;19920;-65
2022/12/20 07:31:54;;;;;;;;;;;6.40;99.90;;;;;;5005614;28;20000;-65
2022/12/20 07:34:20;;;;;;;;;;;6.40;99.90;;;;;;5010411;28;19913;-66
2022/12/20 07:36:46;;;;;;;;;;;6.40;99.90;;;;;;5009498;28;19913;-65
2022/12/20 07:39:12;;;;;;;;;;;6.60;99.90;;;;;;5013038;28;19917;-64
2022/12/20 07:41:37;;;;;;;;;;;6.60;99.90;;;;;;5009979;28;20024;-64
2022/12/20 07:44:03;;;;;;;;;;;6.70;99.90;;;;;;5010620;28;19987;-64
2022/12/20 07:46:29;;;;;;;;;;;6.70;99.90;;;;;;5007711;28;20304;-66
2022/12/20 07:48:55;;;;;;;;;;;6.70;99.90;;;;;;5006407;28;20348;-64
2022/12/20 07:51:26;;;;;;;;;;;6.80;99.90;;;;;;5011654;28;19917;-65
2022/12/20 07:53:56;;;;;;;;;;;6.80;99.90;;;;;;5009352;28;19921;-65
2022/12/20 07:56:22;;;;;;;;;;;6.70;99.90;;;;;;5010944;28;19920;-64
2022/12/20 07:58:48;;;;;;;;;;;6.80;99.90;;;;;;5005607;28;20242;-64
2022/12/20 08:01:14;;;;;;;;;;;6.90;99.90;;;;;;5011851;28;19920;-64
2022/12/20 08:03:45;;;;;;;;;;;6.90;99.90;;;;;;5011017;28;20300;-65
2022/12/20 08:06:11;;;;;;;;;;;6.90;99.90;;;;;;5009861;28;19979;-64
2022/12/20 08:08:39;;;;;;;;;;;6.90;99.90;;;;;;5005446;28;19913;-64
2022/12/20 08:11:07;;;;;;;;;;;6.80;99.90;;;;;;5005541;28;20361;-65
2022/12/20 08:13:32;;;;;;;;;;;6.80;99.90;;;;;;5010469;28;19914;-65
2022/12/20 08:15:58;;;;;;;;;;;7.00;99.90;;;;;;5007057;28;19921;-66
2022/12/20 08:18:24;;;;;;;;;;;7.10;99.90;;;;;;5006905;28;19914;-65
2022/12/20 08:20:50;;;;;;;;;;;7.40;99.90;;;;;;5012344;28;19981;-64
2022/12/20 08:23:16;;;;;;;;;;;7.50;99.90;;;;;;4997629;28;19921;-65
2022/12/20 08:25:42;;;;;;;;;;;7.70;99.90;;;;;;5008377;28;19921;-65
2022/12/20 08:28:07;;;;;;;;;;;7.90;99.90;;;;;;5008873;28;19937;-65
2022/12/20 08:30:33;;;;;;;;;;;8.10;99.90;;;;;;5005472;28;19973;-64
2022/12/20 08:32:58;;;;;;;;;;;8.10;99.90;;;;;;5007367;28;19913;-66
2022/12/20 08:35:24;;;;;;;;;;;8.20;99.90;;;;;;5008160;28;20323;-65
2022/12/20 08:37:50;;;;;;;;;;;8.30;99.90;;;;;;5007475;28;19914;-64
2022/12/20 08:40:16;;;;;;;;;;;8.30;99.90;;;;;;5008482;28;19940;-65
2022/12/20 08:42:41;;;;;;;;;;;8.20;99.90;;;;;;5005269;28;20335;-65
2022/12/20 08:45:07;;;;;;;;;;;8.20;99.90;;;;;;5008175;28;19918;-65
2022/12/20 08:47:33;;;;;;;;;;;8.20;99.90;;;;;;5006343;28;19913;-65
2022/12/20 08:49:58;;;;;;;;;;;8.20;99.90;;;;;;5011904;28;19917;-65
2022/12/20 08:52:24;;;;;;;;;;;8.20;99.90;;;;;;5008676;28;19928;-64
2022/12/20 08:54:49;;;;;;;;;;;8.20;99.90;;;;;;5009604;28;20317;-65
2022/12/20 08:57:15;;;;;;;;;;;8.00;99.90;;;;;;5007237;28;19928;-64
2022/12/20 08:59:40;;;;;;;;;;;7.90;99.90;;;;;;5007336;28;20419;-65
2022/12/20 09:02:06;;;;;;;;;;;7.80;99.90;;;;;;5009143;28;19914;-65
2022/12/20 09:04:32;;;;;;;;;;;7.70;99.90;;;;;;4991620;28;19917;-65
2022/12/20 09:06:58;;;;;;;;;;;7.70;99.90;;;;;;5011963;28;19967;-65
2022/12/20 09:09:23;;;;;;;;;;;7.70;99.90;;;;;;5008187;28;20349;-65
2022/12/20 09:11:49;;;;;;;;;;;7.70;99.90;;;;;;5009320;28;19968;-65
2022/12/20 09:14:14;;;;;;;;;;;7.70;99.90;;;;;;4998391;28;19913;-65
2022/12/20 09:16:40;;;;;;;;;;;7.80;99.90;;;;;;4989947;28;19913;-65
2022/12/20 09:19:05;;;;;;;;;;;7.90;99.90;;;;;;5014405;28;20005;-65
2022/12/20 09:21:31;;;;;;;;;;;7.90;99.90;;;;;;5014409;28;19917;-63
2022/12/20 09:23:57;;;;;;;;;;;7.80;99.90;;;;;;5008924;28;20384;-64
2022/12/20 09:26:23;;;;;;;;;;;7.70;99.90;;;;;;5002660;28;20017;-62
2022/12/20 09:28:49;;;;;;;;;;;7.80;99.90;;;;;;4998402;28;20016;-65
2022/12/20 09:31:21;;;;;;;;;;;7.80;99.90;;;;;;4999827;28;20246;-65
2022/12/20 09:33:47;;;;;;;;;;;7.70;99.90;;;;;;5005906;28;19926;-64
2022/12/20 09:36:13;;;;;;;;;;;7.80;99.90;;;;;;5012722;28;20007;-64
2022/12/20 09:38:39;;;;;;;;;;;7.80;99.90;;;;;;5008730;28;20281;-63
2022/12/20 09:41:06;;;;;;;;;;;7.80;99.90;;;;;;5010292;28;20000;-64
2022/12/20 09:43:32;;;;;;;;;;;7.90;99.90;;;;;;5005994;28;19967;-64
2022/12/20 09:46:02;;;;;;;;;;;8.20;99.90;;;;;;5012718;28;19979;-64
2022/12/20 09:48:31;;;;;;;;;;;8.40;99.90;;;;;;4995590;28;19910;-63
2022/12/20 09:51:06;;;;;;;;;;;8.50;99.90;;;;;;5011730;28;19921;-64
2022/12/20 09:53:37;;;;;;;;;;;8.60;99.90;;;;;;5021311;28;19971;-64
2022/12/20 09:56:14;;;;;;;;;;;8.70;99.90;;;;;;5017922;28;19914;-61
2022/12/20 09:58:43;;;;;;;;;;;8.80;99.90;;;;;;5009797;28;19921;-64
2022/12/20 10:01:35;;;;;;;;;;;8.90;99.90;;;;;;4992497;28;19914;-63
2022/12/20 10:04:04;;;;;;;;;;;8.90;99.90;;;;;;5007963;28;19921;-62
2022/12/20 10:06:45;;;;;;;;;;;8.90;99.90;;;;;;5006285;28;19976;-63
2022/12/20 10:09:26;;;;;;;;;;;8.90;99.90;;;;;;5009893;28;19914;-63
2022/12/20 10:11:53;;;;;;;;;;;8.90;99.90;;;;;;5000254;28;19922;-62
2022/12/20 10:14:18;;;;;;;;;;;9.00;99.90;;;;;;5011436;28;19989;-63
2022/12/20 10:16:45;;;;;;;;;;;9.00;99.90;;;;;;5017073;28;19914;-63
2022/12/20 10:19:29;;;;;;;;;;;9.00;99.90;;;;;;5010945;28;20348;-62
2022/12/20 10:22:11;;;;;;;;;;;9.00;99.90;;;;;;5007565;28;19914;-64
2022/12/20 10:24:37;;;;;;;;;;;9.00;99.90;;;;;;5009077;28;19996;-61
2022/12/20 10:27:14;;;;;;;;;;;9.00;99.90;;;;;;5006305;28;20072;-62
2022/12/20 10:29:41;;;;;;;;;;;9.00;99.90;;;;;;5019605;28;20282;-59
2022/12/20 10:32:14;;;;;;;;;;;9.00;99.90;;;;;;5020888;28;19910;-63
2022/12/20 10:34:49;;;;;;;;;;;9.10;99.90;;;;;;5021952;28;19921;-62
2022/12/20 10:37:15;;;;;;;;;;;9.10;99.90;;;;;;5005053;28;19914;-63
2022/12/20 10:39:41;;;;;;;;;;;9.20;99.90;;;;;;5012504;28;19937;-63
2022/12/20 10:42:22;;;;;;;;;;;9.20;99.90;;;;;;5017839;28;20015;-62
2022/12/20 10:44:48;;;;;;;;;;;9.30;99.90;;;;;;5005643;28;19918;-62
2022/12/20 10:47:43;;;;;;;;;;;9.20;99.90;;;;;;5012924;28;19932;-61
2022/12/20 10:50:22;;;;;;;;;;;9.20;99.90;;;;;;4997088;28;19919;-62
2022/12/20 10:53:03;;;;;;;;;;;9.20;99.90;;;;;;5012351;28;20342;-64
2022/12/20 10:55:34;;;;;;;;;;;9.20;99.90;;;;;;5010330;28;19947;-63
2022/12/20 10:58:12;;;;;;;;;;;9.30;99.90;;;;;;5012021;28;19914;-63
2022/12/20 11:00:38;;;;;;;;;;;9.30;99.90;;;;;;5012908;28;19913;-64
2022/12/20 11:03:30;;;;;;;;;;;9.30;99.90;;;;;;5005323;28;20380;-65
2022/12/20 11:06:01;;;;;;;;;;;9.40;99.90;;;;;;4997268;28;20304;-63
2022/12/20 11:08:28;;;;;;;;;;;9.60;99.90;;;;;;5013424;28;20590;-65
2022/12/20 11:11:12;;;;;;;;;;;9.60;99.90;;;;;;5006302;28;19913;-65
2022/12/20 11:13:39;;;;;;;;;;;9.60;99.90;;;;;;5001230;28;19914;-65
2022/12/20 11:16:04;;;;;;;;;;;9.60;99.90;;;;;;5007052;28;19917;-66
2022/12/20 11:18:30;;;;;;;;;;;9.70;99.90;;;;;;5010054;28;19967;-64
2022/12/20 11:21:05;;;;;;;;;;;9.70;99.90;;;;;;5008905;28;19920;-64
2022/12/20 11:23:42;;;;;;;;;;;9.60;99.90;;;;;;5008908;28;19933;-64
2022/12/20 11:26:23;;;;;;;;;;;9.60;99.90;;;;;;5007535;28;19993;-65
2022/12/20 11:28:48;;;;;;;;;;;9.80;99.90;;;;;;5013150;28;19913;-63
2022/12/20 11:31:33;;;;;;;;;;;9.90;99.90;;;;;;5015451;28;19913;-65
2022/12/20 11:34:02;;;;;;;;;;;9.80;99.90;;;;;;5004747;28;19960;-65
2022/12/20 11:36:27;;;;;;;;;;;9.80;99.90;;;;;;5011545;28;19913;-64
2022/12/20 11:38:59;;;;;;;;;;;9.90;99.90;;;;;;5011171;28;20399;-65
2022/12/20 11:41:39;;;;;;;;;;;9.90;99.90;;;;;;5005920;28;19921;-64
2022/12/20 11:44:17;;;;;;;;;;;9.80;99.90;;;;;;5003298;28;19945;-64
2022/12/20 11:46:42;;;;;;;;;;;9.80;99.90;;;;;;5024610;28;20363;-65
2022/12/20 11:49:08;;;;;;;;;;;9.90;99.90;;;;;;5010965;28;19914;-64
2022/12/20 11:51:47;;;;;;;;;;;9.80;99.90;;;;;;5010991;28;19953;-65
2022/12/20 11:54:16;;;;;;;;;;;9.90;99.90;;;;;;5009066;28;20438;-64
2022/12/20 11:56:43;;;;;;;;;;;9.80;99.90;;;;;;5024862;28;20288;-64
2022/12/20 11:59:31;;;;;;;;;;;9.80;99.90;;;;;;4989157;28;19913;-65
2022/12/20 12:02:11;;;;;;;;;;;9.60;99.90;;;;;;5002006;28;20012;-68
2022/12/20 12:04:42;;;;;;;;;;;9.50;99.90;;;;;;5022428;28;19917;-64
2022/12/20 12:07:12;;;;;;;;;;;9.50;99.90;;;;;;5015106;28;20285;-65
2022/12/20 12:09:41;;;;;;;;;;;9.40;99.90;;;;;;5011877;28;19920;-64
2022/12/20 12:12:12;;;;;;;;;;;9.40;99.90;;;;;;5016182;28;19919;-64
2022/12/20 12:14:47;;;;;;;;;;;9.40;99.90;;;;;;5003642;28;19981;-65
2022/12/20 12:17:17;;;;;;;;;;;9.40;99.90;;;;;;5009173;28;19920;-64
2022/12/20 12:19:45;;;;;;;;;;;9.50;99.90;;;;;;5021537;28;19975;-65
2022/12/20 12:22:15;;;;;;;;;;;9.40;99.90;;;;;;5016530;28;19914;-65
2022/12/20 12:24:43;;;;;;;;;;;9.30;99.90;;;;;;5012349;28;19924;-64
2022/12/20 12:27:38;;;;;;;;;;;9.30;99.90;;;;;;5010968;28;19961;-64
2022/12/20 12:30:04;;;;;;;;;;;9.30;99.90;;;;;;4988358;28;20304;-65
2022/12/20 12:32:39;;;;;;;;;;;9.20;99.90;;;;;;4984546;28;20012;-66
2022/12/20 12:35:04;;;;;;;;;;;9.20;99.90;;;;;;5004286;28;20074;-65
2022/12/20 12:37:36;;;;;;;;;;;9.30;99.90;;;;;;5005667;28;20005;-65
2022/12/20 12:40:20;;;;;;;;;;;9.30;99.90;;;;;;5009579;28;20456;-65
2022/12/20 12:43:04;;;;;;;;;;;9.30;99.90;;;;;;5007692;28;20016;-64
2022/12/20 12:45:45;;;;;;;;;;;9.40;99.90;;;;;;5014204;28;19976;-67
2022/12/20 12:48:13;;;;;;;;;;;9.50;99.90;;;;;;5009558;28;19920;-65
2022/12/20 12:50:44;;;;;;;;;;;9.50;99.90;;;;;;5006244;28;19910;-66
2022/12/20 12:53:14;;;;;;;;;;;9.50;99.90;;;;;;4993194;28;19913;-65
2022/12/20 12:55:42;;;;;;;;;;;9.40;99.90;;;;;;5003085;28;20015;-67
2022/12/20 12:58:13;;;;;;;;;;;9.50;99.90;;;;;;5012061;28;19917;-66
2022/12/20 13:00:57;;;;;;;;;;;9.50;99.90;;;;;;5006773;28;19909;-65
2022/12/20 13:03:35;;;;;;;;;;;9.50;99.90;;;;;;5005059;28;19913;-63
2022/12/20 13:06:19;;;;;;;;;;;9.50;99.90;;;;;;5014311;28;20596;-63
2022/12/20 13:09:07;;;;;;;;;;;9.40;99.90;;;;;;5011374;28;20025;-64
2022/12/20 13:11:35;;;;;;;;;;;9.40;99.90;;;;;;4967102;28;20340;-65
2022/12/20 13:14:11;;;;;;;;;;;9.40;99.90;;;;;;5014567;28;19944;-65
2022/12/20 13:16:38;;;;;;;;;;;9.40;99.90;;;;;;5012333;28;19914;-67
2022/12/20 13:19:10;;;;;;;;;;;9.50;99.90;;;;;;5008052;28;19913;-65
2022/12/20 13:21:37;;;;;;;;;;;9.50;99.90;;;;;;5006982;28;19920;-66
2022/12/20 13:24:21;;;;;;;;;;;9.40;99.90;;;;;;5010612;28;19921;-65
2022/12/20 13:26:53;;;;;;;;;;;9.40;99.90;;;;;;5012618;28;19918;-66
2022/12/20 13:29:34;;;;;;;;;;;9.50;99.90;;;;;;5009642;28;19944;-64
2022/12/20 13:32:01;;;;;;;;;;;9.40;99.90;;;;;;4990715;28;20357;-65
2022/12/20 13:34:35;;;;;;;;;;;9.50;99.90;;;;;;5005994;28;19913;-62
2022/12/20 13:37:01;;;;;;;;;;;9.40;99.90;;;;;;5007346;28;19988;-66
2022/12/20 13:39:26;;;;;;;;;;;9.50;99.90;;;;;;4995677;28;19918;-65
2022/12/20 13:42:06;;;;;;;;;;;9.50;99.90;;;;;;5013820;28;19914;-64
2022/12/20 13:44:51;;;;;;;;;;;9.50;99.90;;;;;;5012372;28;19925;-66
2022/12/20 13:47:37;;;;;;;;;;;9.40;99.90;;;;;;5011882;28;20012;-64
2022/12/20 13:50:39;;;;;;;;;;;9.40;99.90;;;;;;5010952;28;19921;-64
2022/12/20 13:53:05;;;;;;;;;;;9.40;99.90;;;;;;4927022;29;19919;-62
2022/12/20 13:55:37;;;;;;;;;;;9.40;99.90;;;;;;4990254;28;19924;-62
2022/12/20 13:58:05;;;;;;;;;;;9.50;99.90;;;;;;5011380;28;19920;-64
2022/12/20 14:00:30;;;;;;;;;;;9.50;99.90;;;;;;5011821;28;20012;-63
2022/12/20 14:02:56;;;;;;;;;;;9.50;99.90;;;;;;5011940;28;20296;-63
2022/12/20 14:05:25;;;;;;;;;;;9.50;99.90;;;;;;5011402;28;19957;-65
2022/12/20 14:08:06;;;;;;;;;;;9.60;99.90;;;;;;5013090;28;19974;-65
2022/12/20 14:10:32;;;;;;;;;;;9.50;99.90;;;;;;5013454;28;19914;-65
2022/12/20 14:12:58;;;;;;;;;;;9.40;99.90;;;;;;5013295;28;19908;-63
2022/12/20 14:15:28;;;;;;;;;;;9.40;99.90;;;;;;5006754;28;20377;-65
2022/12/20 14:17:54;;;;;;;;;;;9.50;99.90;;;;;;5011630;28;19913;-63
2022/12/20 14:20:20;;;;;;;;;;;9.60;99.90;;;;;;5011975;28;20412;-67
2022/12/20 14:23:08;;;;;;;;;;;9.60;99.90;;;;;;5012237;28;19975;-64
2022/12/20 14:25:34;;;;;;;;;;;9.50;99.90;;;;;;5003257;28;20440;-66
2022/12/20 14:28:00;;;;;;;;;;;9.60;99.90;;;;;;5013490;28;19964;-60
2022/12/20 14:30:31;;;;;;;;;;;9.50;99.90;;;;;;5008250;28;19976;-61
2022/12/20 14:32:57;;;;;;;;;;;9.40;99.90;;;;;;5014653;28;19913;-62
2022/12/20 14:35:22;;;;;;;;;;;9.40;99.90;;;;;;5009691;28;19914;-64
2022/12/20 14:37:53;;;;;;;;;;;9.30;99.90;;;;;;5017133;28;19913;-63
2022/12/20 14:40:19;;;;;;;;;;;9.30;99.90;;;;;;5017720;28;19921;-64
2022/12/20 14:42:45;;;;;;;;;;;9.30;99.90;;;;;;5013941;28;19910;-64
2022/12/20 14:45:14;;;;;;;;;;;9.40;99.90;;;;;;5015271;28;19924;-68
2022/12/20 14:47:53;;;;;;;;;;;9.30;99.90;;;;;;5015539;28;19921;-65
2022/12/20 14:50:27;;;;;;;;;;;9.30;99.90;;;;;;5015931;28;19913;-64